Time;durP1;ratioP1;P1;durP2;ratioP2;P2;SDS_P1;SDS_P2;PMS_P1;PMS_P2;Temp;Humidity;BMP_temperature;BMP_pressure;BME280_temperature;BME280_humidity;BME280_pressure;Samples;Min_cycle;Max_cycle;Signal;HPM_P1;HPM_P2
2022/12/25 05:01:31;;;;;;;12.85;4.20;;;9.90;99.90;;;;;;5430245;23;20050;-67
2022/12/25 05:03:56;;;;;;;13.00;4.90;;;9.90;99.90;;;;;;4976640;28;20031;-67
2022/12/25 05:06:22;;;;;;;12.87;4.27;;;9.80;99.90;;;;;;4976974;28;20033;-67
2022/12/25 05:08:48;;;;;;;13.27;4.57;;;9.70;99.90;;;;;;4986073;28;20627;-67
2022/12/25 05:11:14;;;;;;;8.40;4.73;;;9.60;99.90;;;;;;4987812;28;20117;-67
2022/12/25 05:13:40;;;;;;;13.00;4.95;;;9.50;99.90;;;;;;4983131;28;20030;-68
2022/12/25 05:16:08;;;;;;;12.00;4.53;;;9.50;99.90;;;;;;4969612;28;20086;-68
2022/12/25 05:18:34;;;;;;;12.07;4.68;;;9.50;99.90;;;;;;4967557;28;20027;-68
2022/12/25 05:21:00;;;;;;;12.52;4.60;;;9.60;99.90;;;;;;4958593;28;20074;-68
2022/12/25 05:23:26;;;;;;;9.32;4.75;;;9.60;99.90;;;;;;4957132;28;20027;-68
2022/12/25 05:25:51;;;;;;;12.07;4.77;;;9.60;99.90;;;;;;4958977;28;20027;-68
2022/12/25 05:28:17;;;;;;;11.63;4.33;;;9.80;99.90;;;;;;4957809;28;20031;-68
2022/12/25 05:30:43;;;;;;;13.02;4.88;;;9.80;99.90;;;;;;4958022;28;20186;-68
2022/12/25 05:33:08;;;;;;;10.87;4.57;;;9.70;99.90;;;;;;4957717;28;20054;-68
2022/12/25 05:35:36;;;;;;;8.80;3.47;;;9.60;99.90;;;;;;4957978;28;20031;-68
2022/12/25 05:38:02;;;;;;;7.63;4.10;;;9.60;99.90;;;;;;4958853;28;20051;-68
2022/12/25 05:40:28;;;;;;;7.30;3.70;;;9.70;99.90;;;;;;4962544;28;20078;-68
2022/12/25 05:42:53;;;;;;;7.30;3.33;;;9.60;99.90;;;;;;4976693;28;20273;-68
2022/12/25 05:45:19;;;;;;;9.70;3.50;;;9.60;99.90;;;;;;4976649;28;20030;-68
2022/12/25 05:47:44;;;;;;;9.77;3.77;;;9.60;99.90;;;;;;4974861;28;20058;-68
2022/12/25 05:50:10;;;;;;;9.20;3.30;;;9.70;99.90;;;;;;4976022;28;20035;-69
2022/12/25 05:52:35;;;;;;;7.97;3.43;;;9.70;99.90;;;;;;4976550;28;20114;-68
2022/12/25 05:55:01;;;;;;;9.43;3.50;;;9.70;99.90;;;;;;4976486;28;20027;-68
2022/12/25 05:57:28;;;;;;;9.82;3.38;;;9.60;99.90;;;;;;4976327;28;20027;-68
2022/12/25 05:59:54;;;;;;;8.23;3.53;;;9.60;99.90;;;;;;4973591;28;20109;-67
2022/12/25 06:02:19;;;;;;;10.00;2.90;;;9.80;99.90;;;;;;4976275;28;20030;-68
2022/12/25 06:04:45;;;;;;;8.07;3.13;;;9.80;99.90;;;;;;4976588;28;20522;-68
2022/12/25 06:07:11;;;;;;;6.23;3.00;;;9.90;99.90;;;;;;4976670;28;20041;-68
2022/12/25 06:09:36;;;;;;;8.47;2.67;;;10.00;99.90;;;;;;4973060;28;20037;-69
2022/12/25 06:12:02;;;;;;;6.33;2.60;;;10.10;99.90;;;;;;4956490;28;20282;-68
2022/12/25 06:14:28;;;;;;;7.78;2.55;;;10.10;99.90;;;;;;4955602;28;20126;-68
2022/12/25 06:16:53;;;;;;;7.63;2.20;;;10.00;99.90;;;;;;4956766;28;20027;-67
2022/12/25 06:19:20;;;;;;;6.20;2.53;;;9.90;99.90;;;;;;4957953;28;20027;-68
2022/12/25 06:21:46;;;;;;;;;;;9.90;99.90;;;;;;4956901;28;20094;-68
2022/12/25 06:24:11;;;;;;;7.53;2.60;;;10.00;99.90;;;;;;4956840;28;19950;-67
2022/12/25 06:26:37;;;;;;;10.60;3.30;;;10.10;99.90;;;;;;4956541;28;20034;-68
2022/12/25 06:29:02;;;;;;;5.23;2.67;;;10.00;99.90;;;;;;4956424;28;20039;-67
2022/12/25 06:31:28;;;;;;;5.33;2.67;;;10.10;99.90;;;;;;4968229;28;20384;-68
2022/12/25 06:33:54;;;;;;;5.50;2.57;;;10.00;99.90;;;;;;4975767;28;20034;-68
2022/12/25 06:36:22;;;;;;;4.43;2.90;;;10.00;99.90;;;;;;4962246;28;20039;-69
2022/12/25 06:38:48;;;;;;;7.43;2.53;;;9.90;99.90;;;;;;4956384;28;20102;-69
2022/12/25 06:41:17;;;;;;;6.82;2.72;;;9.90;99.90;;;;;;4957718;28;20057;-68
2022/12/25 06:43:42;;;;;;;3.80;2.35;;;9.90;99.90;;;;;;4956222;28;20392;-67
2022/12/25 06:46:11;;;;;;;5.80;2.50;;;9.80;99.90;;;;;;4975408;28;20034;-69
2022/12/25 06:48:38;;;;;;;7.03;2.83;;;9.90;99.90;;;;;;4975867;28;20035;-69
2022/12/25 06:51:05;;;;;;;5.38;2.30;;;9.80;99.90;;;;;;4975000;28;20472;-68
2022/12/25 06:53:31;;;;;;;6.03;2.60;;;9.80;99.90;;;;;;4973764;28;20050;-68
2022/12/25 06:56:14;;;;;;;4.88;2.40;;;9.80;99.90;;;;;;4975435;28;20035;-67
2022/12/25 06:58:44;;;;;;;4.53;2.80;;;9.70;99.90;;;;;;4973863;28;20019;-68
2022/12/25 07:01:17;;;;;;;7.03;2.55;;;9.70;99.90;;;;;;4974713;28;20349;-68
2022/12/25 07:03:44;;;;;;;5.55;2.53;;;9.80;99.90;;;;;;4973436;28;20459;-68
2022/12/25 07:06:10;;;;;;;4.35;2.85;;;9.80;99.90;;;;;;4963144;28;20031;-70
2022/12/25 07:08:35;;;;;;;5.82;2.63;;;9.80;99.90;;;;;;4955763;28;20034;-68
2022/12/25 07:11:01;;;;;;;3.20;2.30;;;9.80;99.90;;;;;;4955644;28;20093;-68
2022/12/25 07:13:26;;;;;;;5.53;2.10;;;9.80;99.90;;;;;;4955288;28;20129;-68
2022/12/25 07:15:58;;;;;;;3.40;1.77;;;9.90;99.90;;;;;;4961139;28;20027;-67
2022/12/25 07:18:24;;;;;;;5.50;2.25;;;9.90;99.90;;;;;;4973513;28;20026;-68
2022/12/25 07:20:49;;;;;;;4.13;2.17;;;9.90;99.90;;;;;;4974156;28;20030;-68
2022/12/25 07:23:15;;;;;;;2.77;1.90;;;9.90;99.90;;;;;;4974809;28;20093;-68
2022/12/25 07:25:40;;;;;;;5.60;2.40;;;9.80;99.90;;;;;;4972942;28;20077;-68
2022/12/25 07:28:08;;;;;;;6.53;2.37;;;9.80;99.90;;;;;;4973253;28;20459;-68
2022/12/25 07:30:34;;;;;;;6.22;2.10;;;9.70;99.90;;;;;;4974451;28;20027;-69
2022/12/25 07:32:59;;;;;;;4.10;2.03;;;9.70;99.90;;;;;;4974953;28;20037;-68
2022/12/25 07:35:25;;;;;;;5.47;2.00;;;9.70;99.90;;;;;;4964879;28;20082;-69
2022/12/25 07:37:50;;;;;;;4.37;2.07;;;9.60;99.90;;;;;;4955482;28;20027;-69
2022/12/25 07:40:16;;;;;;;2.93;2.03;;;9.70;99.90;;;;;;4955152;28;20085;-68
2022/12/25 07:42:41;;;;;;;4.67;2.40;;;9.60;99.90;;;;;;4957385;28;20046;-69
2022/12/25 07:45:07;;;;;;;4.87;2.40;;;9.60;99.90;;;;;;4974516;28;20033;-68
2022/12/25 07:47:33;;;;;;;6.25;2.20;;;9.60;99.90;;;;;;4960459;28;20038;-68
2022/12/25 07:49:58;;;;;;;4.37;2.40;;;9.60;99.90;;;;;;4954774;28;20563;-68
2022/12/25 07:52:24;;;;;;;5.00;2.33;;;9.70;99.90;;;;;;4956034;28;20049;-68
2022/12/25 07:54:50;;;;;;;5.60;2.20;;;9.60;99.90;;;;;;4954807;28;20485;-68
2022/12/25 07:57:15;;;;;;;2.93;1.90;;;9.70;99.90;;;;;;4955172;28;20035;-68
2022/12/25 07:59:41;;;;;;;3.83;2.17;;;9.70;99.90;;;;;;4955218;28;20035;-68
2022/12/25 08:02:07;;;;;;;4.50;2.10;;;9.80;99.90;;;;;;4969420;28;20143;-69
2022/12/25 08:04:33;;;;;;;3.95;2.42;;;9.70;99.90;;;;;;4954755;28;20036;-69
2022/12/25 08:06:58;;;;;;;6.13;2.50;;;9.80;99.90;;;;;;4955911;28;20523;-69
2022/12/25 08:09:24;;;;;;;3.63;2.60;;;9.80;99.90;;;;;;4972791;28;20030;-69
2022/12/25 08:11:49;;;;;;;6.53;2.37;;;9.80;99.90;;;;;;4972603;28;20061;-69
2022/12/25 08:14:15;;;;;;;7.30;3.07;;;10.00;99.90;;;;;;4974105;28;20484;-69
2022/12/25 08:16:41;;;;;;;5.10;2.67;;;10.10;99.90;;;;;;4972215;28;20027;-69
2022/12/25 08:19:10;;;;;;;5.80;2.33;;;10.20;99.90;;;;;;4974101;28;20019;-69
2022/12/25 08:21:35;;;;;;;3.83;2.50;;;10.30;99.90;;;;;;4957919;28;20028;-69
2022/12/25 08:24:02;;;;;;;5.40;2.80;;;10.30;99.90;;;;;;4956753;28;20077;-69
2022/12/25 08:26:27;;;;;;;5.72;2.72;;;10.40;99.90;;;;;;4955254;28;20405;-69
2022/12/25 08:28:53;;;;;;;5.72;2.67;;;10.40;99.90;;;;;;4963292;28;20108;-69
2022/12/25 08:31:27;;;;;;;5.80;3.03;;;10.40;99.90;;;;;;4960693;28;20031;-68
2022/12/25 08:33:56;;;;;;;4.22;2.78;;;10.40;99.90;;;;;;4957648;28;20140;-69
2022/12/25 08:36:22;;;;;;;5.68;3.33;;;10.50;99.90;;;;;;4975784;28;20074;-69
2022/12/25 08:38:48;;;;;;;5.75;3.40;;;10.60;99.90;;;;;;4977929;28;20098;-68
2022/12/25 08:41:14;;;;;;;7.03;3.00;;;10.60;99.90;;;;;;4976488;28;20476;-68
2022/12/25 08:43:40;;;;;;;5.32;3.47;;;10.60;99.90;;;;;;4958600;28;20560;-68
2022/12/25 08:46:06;;;;;;;4.68;3.25;;;10.50;99.90;;;;;;4953951;28;20067;-68
2022/12/25 08:48:32;;;;;;;4.75;2.58;;;10.60;99.90;;;;;;4938154;28;20388;-67
2022/12/25 08:50:58;;;;;;;5.30;2.23;;;10.70;99.90;;;;;;4936491;29;20042;-67
2022/12/25 08:53:24;;;;;;;10.82;3.45;;;10.70;99.90;;;;;;4952971;28;20025;-67
2022/12/25 08:55:59;;;;;;;8.13;4.17;;;10.40;99.90;;;;;;4973477;28;20126;-68
2022/12/25 08:58:26;;;;;;;15.23;7.50;;;10.20;99.90;;;;;;4974120;28;20409;-66
2022/12/25 09:00:51;;;;;;;14.73;6.07;;;10.10;99.90;;;;;;4973414;28;20403;-66
2022/12/25 09:03:17;;;;;;;12.50;8.30;;;10.10;99.90;;;;;;4973991;28;20054;-68
2022/12/25 09:05:43;;;;;;;11.47;6.47;;;10.20;99.90;;;;;;4974413;28;20394;-67
2022/12/25 09:08:08;;;;;;;8.20;4.53;;;10.40;99.90;;;;;;4964143;28;20428;-68
2022/12/25 09:10:35;;;;;;;6.43;4.20;;;10.50;99.90;;;;;;4957874;28;20050;-67
2022/12/25 09:13:01;;;;;;;8.73;3.85;;;10.60;99.90;;;;;;4957835;28;20502;-67
2022/12/25 09:15:27;;;;;;;6.43;3.50;;;10.60;99.90;;;;;;4970330;28;20026;-70
2022/12/25 09:17:52;;;;;;;7.10;3.50;;;10.60;99.90;;;;;;4975686;28;20187;-68
2022/12/25 09:20:18;;;;;;;5.33;3.27;;;10.70;99.90;;;;;;4976733;28;20027;-68
2022/12/25 09:22:43;;;;;;;6.13;3.77;;;10.80;99.90;;;;;;4975659;28;20387;-69
2022/12/25 09:25:09;;;;;;;6.70;2.40;;;11.00;99.90;;;;;;4976887;28;20392;-69
2022/12/25 09:27:34;;;;;;;5.10;2.93;;;11.40;99.90;;;;;;4978503;28;20484;-65
2022/12/25 09:30:00;;;;;;;4.50;2.70;;;11.40;99.90;;;;;;4973196;28;20020;-71
2022/12/25 09:32:25;;;;;;;4.37;3.07;;;11.40;99.90;;;;;;4959539;28;20437;-72
2022/12/25 09:34:51;;;;;;;6.27;2.73;;;11.40;99.90;;;;;;4975570;28;20538;-67
2022/12/25 09:37:16;;;;;;;4.10;2.93;;;11.20;99.90;;;;;;4978027;28;20098;-67
2022/12/25 09:39:42;;;;;;;7.37;2.73;;;11.10;99.90;;;;;;4975571;28;20376;-71
2022/12/25 09:42:33;;;;;;;6.77;3.10;;;11.40;99.90;;;;;;4976303;28;20027;-68
2022/12/25 09:45:24;;;;;;;5.53;2.60;;;11.50;99.90;;;;;;4970097;28;20045;-76
2022/12/25 09:47:55;;;;;;;9.10;3.75;;;11.70;99.90;;;;;;4966682;28;20091;-73
2022/12/25 09:50:44;;;;;;;9.13;4.65;;;11.40;99.90;;;;;;4954845;29;20034;-75
2022/12/25 09:53:17;;;;;;;12.25;5.85;;;11.20;99.90;;;;;;4956892;28;20023;-71
2022/12/25 09:55:51;;;;;;;7.10;4.15;;;10.80;99.90;;;;;;4967555;28;20027;-71
2022/12/25 09:58:17;;;;;;;7.20;3.35;;;10.70;99.90;;;;;;4977679;28;20027;-73
2022/12/25 10:00:58;;;;;;;8.37;4.93;;;10.80;99.90;;;;;;4961190;28;20031;-71
2022/12/25 10:03:40;;;;;;;5.95;3.60;;;10.80;99.90;;;;;;4968072;28;20061;-70
2022/12/25 10:06:30;;;;;;;8.50;3.72;;;10.80;99.90;;;;;;4972310;28;20026;-73
2022/12/25 10:09:19;;;;;;;6.78;3.38;;;10.90;99.90;;;;;;4975092;28;20027;-74
2022/12/25 10:12:02;;;;;;;9.27;4.63;;;11.10;99.90;;;;;;4976311;28;20520;-73
2022/12/25 10:14:44;;;;;;;12.27;3.58;;;11.10;99.90;;;;;;4975088;28;20062;-73
2022/12/25 10:17:29;;;;;;;5.85;3.08;;;11.40;99.90;;;;;;4964510;28;20540;-72
2022/12/25 10:20:12;;;;;;;6.28;3.15;;;11.30;99.90;;;;;;4967614;28;20054;-72
2022/12/25 10:22:45;;;;;;;6.20;2.90;;;11.40;99.90;;;;;;4976338;28;20070;-69
2022/12/25 10:25:17;;;;;;;5.07;3.03;;;11.30;99.90;;;;;;4974687;28;20026;-70
2022/12/25 10:27:43;;;;;;;5.78;3.33;;;11.40;99.90;;;;;;4977448;28;20058;-71
2022/12/25 10:30:14;;;;;;;6.50;2.80;;;11.50;99.90;;;;;;4965139;28;20465;-70
2022/12/25 10:32:40;;;;;;;4.75;2.47;;;11.70;99.90;;;;;;4959059;28;20058;-72
2022/12/25 10:35:14;;;;;;;5.68;2.13;;;12.10;99.90;;;;;;4964888;28;20027;-73
2022/12/25 10:37:41;;;;;;;4.78;2.42;;;12.50;99.90;;;;;;4957931;28;20086;-72
2022/12/25 10:40:23;;;;;;;5.05;2.45;;;12.70;99.90;;;;;;4959141;28;20058;-72
2022/12/25 10:42:55;;;;;;;5.82;3.15;;;12.80;99.90;;;;;;4977574;28;20472;-72
2022/12/25 10:45:20;;;;;;;5.00;2.95;;;12.90;99.90;;;;;;4978500;28;20022;-72
2022/12/25 10:47:46;;;;;;;7.37;2.67;;;12.80;99.90;;;;;;4976096;28;20478;-69
2022/12/25 10:50:22;;;;;;;20.08;9.30;;;12.40;99.90;;;;;;4975076;28;20446;-69
2022/12/25 10:53:03;;;;;;;7.78;4.05;;;12.40;99.90;;;;;;4975270;28;20027;-67
2022/12/25 10:55:29;;;;;;;9.73;5.03;;;12.50;99.90;;;;;;4973394;28;20026;-69
2022/12/25 10:57:56;;;;;;;5.53;2.80;;;12.70;99.90;;;;;;4975323;28;20030;-70
2022/12/25 11:00:27;;;;;;;6.97;3.20;;;12.80;99.90;;;;;;4975380;28;20085;-70
2022/12/25 11:02:53;;;;;;;6.20;2.75;;;12.80;99.90;;;;;;4973281;28;20578;-69
2022/12/25 11:05:33;;;;;;;5.55;2.72;;;12.60;99.90;;;;;;4975269;28;20067;-69
2022/12/25 11:08:01;;;;;;;3.55;2.42;;;12.50;99.90;;;;;;4975010;28;20027;-70
2022/12/25 11:10:36;;;;;;;8.82;3.85;;;12.50;99.90;;;;;;4957698;28;20385;-69
2022/12/25 11:13:06;;;;;;;6.18;3.03;;;12.40;99.90;;;;;;4955632;28;20023;-70
2022/12/25 11:15:43;;;;;;;4.50;2.70;;;12.50;99.90;;;;;;4955456;28;20547;-68
2022/12/25 11:18:20;;;;;;;;;;;12.90;99.90;;;;;;4955619;28;20023;-68
2022/12/25 11:21:13;;;;;;;10.98;5.97;;;12.90;99.90;;;;;;4972948;28;19917;-72
2022/12/25 11:23:45;;;;;;;8.88;3.80;;;12.80;99.90;;;;;;4973624;28;20038;-71
2022/12/25 11:26:12;;;;;;;5.13;3.10;;;12.60;99.90;;;;;;4965564;28;20027;-71
2022/12/25 11:28:40;;;;;;;4.25;2.15;;;12.50;99.90;;;;;;4954191;29;20020;-69
2022/12/25 11:31:13;;;;;;;4.70;1.95;;;12.50;99.90;;;;;;4968278;28;20042;-67
2022/12/25 11:34:27;;;;;;;5.80;2.20;;;12.60;99.90;;;;;;4974921;28;20030;-66
2022/12/25 11:36:52;;;;;;;5.97;2.45;;;12.70;99.90;;;;;;4946917;29;20403;-70
2022/12/25 11:39:27;;;;;;;5.63;2.20;;;12.80;99.90;;;;;;4961100;28;20110;-69
2022/12/25 11:42:03;;;;;;;9.30;2.10;;;12.90;99.90;;;;;;4951221;28;20028;-67
2022/12/25 11:44:59;;;;;;;4.93;1.90;;;13.10;99.90;;;;;;4941055;28;20493;-68
2022/12/25 11:47:48;;;;;;;5.32;1.83;;;13.40;99.90;;;;;;4965473;28;20027;-68
2022/12/25 11:50:29;;;;;;;7.10;2.35;;;13.50;99.90;;;;;;4974437;28;20078;-71
2022/12/25 11:52:58;;;;;;;4.70;2.53;;;13.40;99.90;;;;;;4972600;28;20399;-69
2022/12/25 11:55:34;;;;;;;3.95;2.22;;;13.30;99.90;;;;;;4948190;28;20099;-67
2022/12/25 11:58:07;;;;;;;4.80;2.15;;;13.20;99.90;;;;;;4948091;28;20030;-68
2022/12/25 12:00:34;;;;;;;5.70;2.15;;;13.20;99.90;;;;;;4936233;29;20118;-70
2022/12/25 12:03:13;;;;;;;4.47;2.22;;;13.40;99.90;;;;;;4970297;28;20030;-69
2022/12/25 12:05:47;;;;;;;5.22;2.38;;;13.60;99.90;;;;;;4961537;28;20027;-69
2022/12/25 12:08:14;;;;;;;5.25;2.67;;;13.50;99.90;;;;;;4959842;28;20106;-68
2022/12/25 12:10:50;;;;;;;4.32;2.20;;;13.50;99.90;;;;;;4959206;28;20505;-71
2022/12/25 12:13:39;;;;;;;3.97;2.15;;;13.70;99.90;;;;;;4959706;28;20412;-70
2022/12/25 12:16:07;;;;;;;3.78;2.00;;;13.70;99.90;;;;;;4963319;28;20039;-69
2022/12/25 12:18:33;;;;;;;5.28;2.10;;;13.60;99.90;;;;;;4962953;28;20097;-69
2022/12/25 12:21:08;;;;;;;4.97;2.60;;;13.60;99.90;;;;;;4959072;28;20078;-69
2022/12/25 12:23:48;;;;;;;3.75;1.88;;;13.70;99.90;;;;;;4959465;29;20107;-67
2022/12/25 12:26:22;;;;;;;5.07;1.77;;;13.60;99.90;;;;;;4972552;28;20137;-71
2022/12/25 12:28:49;;;;;;;7.65;2.40;;;13.60;99.90;;;;;;4957491;28;20023;-70
2022/12/25 12:31:16;;;;;;;5.25;2.22;;;13.70;99.90;;;;;;4958789;28;20043;-71
2022/12/25 12:33:47;;;;;;;;;;;13.50;99.90;;;;;;4958919;28;20086;-68
2022/12/25 12:36:14;;;;;;;4.35;2.15;;;13.60;99.90;;;;;;4960396;28;19907;-68
2022/12/25 12:38:42;;;;;;;4.25;1.80;;;13.50;99.90;;;;;;4957328;29;20114;-68
2022/12/25 12:41:10;;;;;;;4.72;2.35;;;13.50;99.90;;;;;;4960008;28;20019;-68
2022/12/25 12:43:40;;;;;;;5.07;1.95;;;13.30;99.90;;;;;;4958999;29;20026;-68
2022/12/25 12:46:16;;;;;;;6.30;2.22;;;13.50;99.90;;;;;;4961230;28;20038;-68
2022/12/25 12:48:45;;;;;;;3.55;2.17;;;13.40;99.90;;;;;;4960355;28;20034;-68
2022/12/25 12:51:33;;;;;;;6.78;2.75;;;13.60;99.90;;;;;;4960403;28;20587;-68
2022/12/25 12:54:20;;;;;;;5.80;2.33;;;13.50;99.90;;;;;;4960128;29;20043;-69
2022/12/25 12:56:58;;;;;;;4.72;2.22;;;13.30;99.90;;;;;;4960027;28;20181;-67
2022/12/25 12:59:25;;;;;;;4.88;2.58;;;13.40;99.90;;;;;;4969722;28;20038;-67
2022/12/25 13:01:53;;;;;;;6.53;2.20;;;13.30;99.90;;;;;;4977214;28;20428;-67
2022/12/25 13:04:50;;;;;;;4.00;2.35;;;13.20;99.90;;;;;;4977254;28;20031;-68
2022/12/25 13:07:42;;;;;;;7.03;2.40;;;13.20;99.90;;;;;;4970361;28;20035;-67
2022/12/25 13:10:32;;;;;;;3.75;2.40;;;13.20;99.90;;;;;;4958139;28;20102;-67
2022/12/25 13:13:11;;;;;;;5.43;2.42;;;13.20;99.90;;;;;;4954215;28;20049;-67
2022/12/25 13:15:37;;;;;;;5.07;2.63;;;13.10;99.90;;;;;;4967099;28;20488;-67
2022/12/25 13:18:06;;;;;;;4.18;2.40;;;13.20;99.90;;;;;;4974784;28;20042;-67
2022/12/25 13:20:40;;;;;;;6.15;3.10;;;13.30;99.90;;;;;;4963638;28;20066;-67
2022/12/25 13:23:33;;;;;;;8.98;2.50;;;13.40;99.90;;;;;;4977063;28;20023;-68
2022/12/25 13:26:12;;;;;;;7.45;3.65;;;13.40;99.90;;;;;;4975923;28;20479;-68
2022/12/25 13:28:38;;;;;;;7.38;3.03;;;13.50;99.90;;;;;;4963848;28;20039;-67
2022/12/25 13:31:20;;;;;;;5.27;2.50;;;13.40;99.90;;;;;;4957417;28;20123;-68
2022/12/25 13:33:54;;;;;;;5.38;2.30;;;13.40;99.90;;;;;;4957258;28;20259;-67
2022/12/25 13:36:20;;;;;;;4.20;2.50;;;13.40;99.90;;;;;;4959692;28;20099;-67
2022/12/25 13:38:49;;;;;;;6.77;2.53;;;13.40;99.90;;;;;;4975058;28;20114;-67
2022/12/25 13:44:05;;;;;;;3.95;2.20;;;13.90;99.90;;;;;;4976769;28;20102;-67
2022/12/25 13:46:30;;;;;;;7.32;2.70;;;13.80;99.90;;;;;;4976389;28;20502;-67
2022/12/25 13:49:00;;;;;;;14.27;3.43;;;13.60;99.90;;;;;;4964064;28;20453;-68
2022/12/25 13:51:25;;;;;;;6.10;2.58;;;13.60;99.90;;;;;;4957848;28;20110;-67
2022/12/25 13:54:03;;;;;;;6.90;2.75;;;13.60;99.90;;;;;;4957995;28;20039;-68
2022/12/25 13:56:28;;;;;;;5.82;3.20;;;13.50;99.90;;;;;;4955629;28;20374;-67
2022/12/25 13:58:54;;;;;;;3.90;2.60;;;13.50;99.90;;;;;;4957994;28;20027;-67
2022/12/25 14:01:19;;;;;;;4.80;2.37;;;13.70;99.90;;;;;;4956899;28;20297;-67
2022/12/25 14:03:46;;;;;;;3.63;2.30;;;13.70;99.90;;;;;;4957172;28;20042;-67
2022/12/25 14:06:19;;;;;;;3.67;2.53;;;13.90;99.90;;;;;;4956135;28;20393;-66
2022/12/25 14:08:46;;;;;;;5.85;3.30;;;13.90;99.90;;;;;;4963444;28;20023;-67
2022/12/25 14:11:15;;;;;;;10.93;4.38;;;13.90;99.90;;;;;;4974727;28;20039;-68
2022/12/25 14:13:43;;;;;;;17.63;9.23;;;13.90;99.90;;;;;;4976282;28;20041;-68
2022/12/25 14:16:09;;;;;;;14.18;7.18;;;13.80;99.90;;;;;;4974478;28;20117;-68
2022/12/25 14:18:35;;;;;;;6.63;2.90;;;13.70;99.90;;;;;;4976009;28;20154;-68
2022/12/25 14:21:05;;;;;;;23.63;9.88;;;13.70;99.90;;;;;;4974174;28;20094;-68
2022/12/25 14:23:45;;;;;;;49.17;20.15;;;13.80;99.90;;;;;;4976022;28;20019;-67
2022/12/25 14:26:16;;;;;;;14.65;6.30;;;13.80;99.90;;;;;;4957662;28;20045;-71
2022/12/25 14:28:46;;;;;;;18.38;7.20;;;13.70;99.90;;;;;;4956862;28;20484;-67
2022/12/25 14:31:12;;;;;;;25.92;10.63;;;13.60;99.90;;;;;;4955244;28;20035;-67
2022/12/25 14:33:39;;;;;;;21.63;9.38;;;13.50;99.90;;;;;;4956283;28;20111;-67
2022/12/25 14:36:05;;;;;;;29.52;12.07;;;13.50;99.90;;;;;;4954886;29;20039;-67
2022/12/25 14:38:33;;;;;;;18.58;7.20;;;13.60;99.90;;;;;;4956364;28;20034;-67
2022/12/25 14:41:16;;;;;;;39.70;14.68;;;13.60;99.90;;;;;;4965269;28;20081;-67
2022/12/25 14:43:52;;;;;;;23.35;10.18;;;13.40;99.90;;;;;;4974330;28;20557;-67
2022/12/25 14:46:27;;;;;;;9.85;4.63;;;13.20;99.90;;;;;;4975573;28;20037;-67
2022/12/25 14:48:59;;;;;;;20.48;9.07;;;13.20;99.90;;;;;;4950380;28;20034;-71
2022/12/25 14:51:24;;;;;;;5.20;2.58;;;13.00;99.90;;;;;;4949566;28;20358;-71
2022/12/25 14:53:54;;;;;;;9.00;4.53;;;13.10;99.90;;;;;;4949483;28;20039;-70
2022/12/25 14:56:21;;;;;;;7.97;3.53;;;12.90;99.90;;;;;;4955151;28;20066;-69
2022/12/25 14:58:57;;;;;;;9.48;3.65;;;13.10;99.90;;;;;;4956096;28;20102;-69
2022/12/25 15:01:38;;;;;;;7.20;4.18;;;13.00;99.90;;;;;;4955652;28;20401;-68
2022/12/25 15:04:10;;;;;;;6.47;3.88;;;12.80;99.90;;;;;;4964879;28;20053;-69
2022/12/25 15:06:39;;;;;;;7.43;3.65;;;12.60;99.90;;;;;;4963738;28;20445;-69
2022/12/25 15:09:15;;;;;;;6.43;3.25;;;12.50;99.90;;;;;;4955861;28;20400;-69
2022/12/25 15:11:41;;;;;;;8.18;3.70;;;12.40;99.90;;;;;;4955642;28;20020;-69
2022/12/25 15:14:06;;;;;;;13.40;6.13;;;12.30;99.90;;;;;;4956618;28;20528;-68
2022/12/25 15:16:39;;;;;;;9.10;4.20;;;12.20;99.90;;;;;;4960569;28;20274;-69
2022/12/25 15:19:07;;;;;;;8.57;3.97;;;12.20;99.90;;;;;;4973626;28;20036;-68
2022/12/25 15:21:34;;;;;;;6.55;2.90;;;12.20;99.90;;;;;;4973190;28;20027;-67
2022/12/25 15:24:00;;;;;;;5.20;3.33;;;12.10;99.90;;;;;;4973345;28;20051;-68
2022/12/25 15:26:28;;;;;;;6.75;3.90;;;12.10;99.90;;;;;;4973312;28;20042;-68
2022/12/25 15:28:53;;;;;;;5.60;3.80;;;12.10;99.90;;;;;;4975021;28;20108;-67
2022/12/25 15:31:23;;;;;;;4.60;3.07;;;12.10;99.90;;;;;;4974871;28;20022;-69
2022/12/25 15:33:50;;;;;;;7.20;3.28;;;12.10;99.90;;;;;;4974200;28;20124;-68
2022/12/25 15:36:16;;;;;;;;;;;12.00;99.90;;;;;;4965029;28;20038;-69
2022/12/25 15:38:41;;;;;;;4.75;2.90;;;12.00;99.90;;;;;;4955655;28;19910;-67
2022/12/25 15:44:10;;;;;;;6.05;3.35;;;12.10;99.90;;;;;;4956466;28;20042;-67
2022/12/25 15:46:36;;;;;;;;;;;12.20;99.90;;;;;;4957330;28;20114;-67
2022/12/25 15:49:01;;;;;;;4.85;3.10;;;12.40;99.90;;;;;;4956364;28;20062;-67
2022/12/25 15:51:27;;;;;;;9.13;3.57;;;12.20;99.90;;;;;;4973244;28;20134;-68
2022/12/25 15:53:53;;;;;;;5.93;3.70;;;12.00;99.90;;;;;;4974314;28;20099;-69
2022/12/25 15:56:18;;;;;;;5.27;3.50;;;11.90;99.90;;;;;;4948923;28;20358;-68
2022/12/25 15:58:44;;;;;;;6.50;3.65;;;11.90;99.90;;;;;;4939447;29;20066;-68
2022/12/25 16:01:14;;;;;;;5.40;3.60;;;11.90;99.90;;;;;;4956974;28;20064;-68
2022/12/25 16:03:41;;;;;;;5.68;3.60;;;12.10;99.90;;;;;;4955467;28;20035;-68
2022/12/25 16:06:11;;;;;;;;;;;12.10;99.90;;;;;;4952946;28;20102;-68
2022/12/25 16:08:36;;;;;;;5.95;3.55;;;11.90;99.90;;;;;;4943255;28;19911;-68
2022/12/25 16:11:02;;;;;;;8.43;4.07;;;11.90;99.90;;;;;;4958863;28;20105;-68
2022/12/25 16:13:27;;;;;;;70.23;54.27;;;11.80;99.90;;;;;;4968339;28;20081;-68
2022/12/25 16:15:53;;;;;;;39.63;30.13;;;11.80;99.90;;;;;;4954823;28;20110;-67
2022/12/25 16:18:18;;;;;;;8.50;4.77;;;12.00;99.90;;;;;;4955075;29;20055;-68
2022/12/25 16:20:44;;;;;;;16.83;10.53;;;12.00;99.90;;;;;;4967121;28;20027;-68
2022/12/25 16:23:09;;;;;;;11.87;7.50;;;11.90;99.90;;;;;;4974122;28;20027;-68
2022/12/25 16:25:35;;;;;;;9.50;5.30;;;11.90;99.90;;;;;;4974215;28;20027;-68
2022/12/25 16:28:02;;;;;;;8.27;5.93;;;11.80;99.90;;;;;;4972786;28;20030;-69
2022/12/25 16:30:28;;;;;;;8.75;5.45;;;11.80;99.90;;;;;;4971209;28;20031;-69
2022/12/25 16:32:54;;;;;;;7.53;4.57;;;11.80;99.90;;;;;;4974462;28;20110;-69
2022/12/25 16:35:19;;;;;;;26.60;10.60;;;11.80;99.90;;;;;;4953004;28;20093;-68
2022/12/25 16:37:45;;;;;;;5.87;3.50;;;12.00;99.90;;;;;;4953872;28;20027;-69
2022/12/25 16:40:10;;;;;;;12.47;5.37;;;12.00;99.90;;;;;;4955906;28;20046;-69
2022/12/25 16:42:36;;;;;;;7.93;4.53;;;12.00;99.90;;;;;;4952576;28;20102;-68
2022/12/25 16:45:06;;;;;;;7.80;4.38;;;12.10;99.90;;;;;;4948695;29;20070;-68
2022/12/25 16:47:31;;;;;;;10.70;5.78;;;11.90;99.90;;;;;;4952542;28;20098;-68
2022/12/25 16:49:57;;;;;;;7.57;5.10;;;11.90;99.90;;;;;;4955083;28;20031;-68
2022/12/25 16:52:22;;;;;;;10.30;5.37;;;11.80;99.90;;;;;;4954648;28;20027;-68
2022/12/25 16:54:48;;;;;;;8.27;4.10;;;11.90;99.90;;;;;;4956869;28;20114;-69
2022/12/25 16:57:14;;;;;;;8.03;4.03;;;11.80;99.90;;;;;;4959065;28;20163;-68
2022/12/25 16:59:40;;;;;;;6.13;3.83;;;11.90;99.90;;;;;;4958465;28;20527;-68
2022/12/25 17:02:05;;;;;;;10.27;4.82;;;11.80;99.90;;;;;;4957729;28;20532;-68
2022/12/25 17:04:31;;;;;;;5.07;3.97;;;11.70;99.90;;;;;;4965321;28;20118;-70
2022/12/25 17:06:57;;;;;;;10.40;4.63;;;11.60;99.90;;;;;;4963283;28;20093;-68
2022/12/25 17:09:23;;;;;;;6.03;4.20;;;11.70;99.90;;;;;;4957857;29;20042;-70
2022/12/25 17:11:49;;;;;;;;;;;11.60;99.90;;;;;;4960933;28;20027;-68
2022/12/25 17:14:14;;;;;;;8.70;4.00;;;11.80;99.90;;;;;;4959498;28;19917;-68
2022/12/25 17:16:40;;;;;;;7.57;4.40;;;11.80;99.90;;;;;;4958393;28;20487;-68
2022/12/25 17:19:11;;;;;;;8.07;4.77;;;11.80;99.90;;;;;;4958402;28;20028;-68
2022/12/25 17:21:37;;;;;;;11.15;6.40;;;11.80;99.90;;;;;;4959412;28;20298;-68
2022/12/25 17:24:03;;;;;;;7.15;4.53;;;11.80;99.90;;;;;;4976184;28;20448;-68
2022/12/25 17:26:29;;;;;;;9.77;5.55;;;11.80;99.90;;;;;;4961408;28;20043;-69
2022/12/25 17:28:56;;;;;;;8.45;5.30;;;11.60;99.90;;;;;;4957528;28;20023;-68
2022/12/25 17:31:21;;;;;;;9.27;4.82;;;11.40;99.90;;;;;;4957733;28;20035;-69
2022/12/25 17:33:47;;;;;;;9.37;5.00;;;11.30;99.90;;;;;;4974114;28;20112;-68
2022/12/25 17:36:16;;;;;;;8.10;5.50;;;11.20;99.90;;;;;;4968271;28;20054;-68
2022/12/25 17:38:42;;;;;;;7.72;4.75;;;11.20;99.90;;;;;;4958156;28;20036;-68
2022/12/25 17:41:09;;;;;;;;;;;11.20;99.90;;;;;;4958358;28;20023;-68
2022/12/25 17:43:40;;;;;;;8.85;5.72;;;11.20;99.90;;;;;;4956604;28;19914;-69
2022/12/25 17:46:16;;;;;;;9.63;5.25;;;11.50;99.90;;;;;;4957566;28;20459;-68
2022/12/25 17:48:43;;;;;;;8.23;4.95;;;11.50;99.90;;;;;;4956629;29;20034;-68
2022/12/25 17:51:11;;;;;;;9.52;5.60;;;11.60;99.90;;;;;;4965946;28;20587;-68
2022/12/25 17:53:39;;;;;;;9.23;5.97;;;11.60;99.90;;;;;;4976567;28;20034;-68
2022/12/25 17:56:06;;;;;;;10.60;6.43;;;11.70;99.90;;;;;;4964139;28;20477;-68
2022/12/25 17:58:31;;;;;;;10.55;6.63;;;11.60;99.90;;;;;;4956958;28;20038;-67
2022/12/25 18:01:03;;;;;;;10.93;6.37;;;11.70;99.90;;;;;;4958124;28;20035;-67
2022/12/25 18:03:28;;;;;;;10.38;6.30;;;11.60;99.90;;;;;;4957381;28;20031;-69
2022/12/25 18:05:54;;;;;;;11.13;6.70;;;11.50;99.90;;;;;;4955735;28;20127;-68